Time;durP1;ratioP1;P1;durP2;ratioP2;P2;SDS_P1;SDS_P2;PMS_P1;PMS_P2;Temp;Humidity;BMP_temperature;BMP_pressure;BME280_temperature;BME280_humidity;BME280_pressure;Samples;Min_cycle;Max_cycle;Signal;HPM_P1;HPM_P2
2021/12/31 00:00:56;;;;;;;24.60;3.92;;;12.40;99.90;;;;;;4998616;28;20133;-72
2021/12/31 00:03:22;;;;;;;19.77;4.10;;;12.40;99.90;;;;;;5015592;28;20046;-71
2021/12/31 00:05:47;;;;;;;15.85;3.60;;;12.40;99.90;;;;;;4998921;28;20347;-71
2021/12/31 00:08:13;;;;;;;15.40;3.30;;;12.40;99.90;;;;;;5014706;28;20045;-71
2021/12/31 00:10:39;;;;;;;22.63;3.80;;;12.40;99.90;;;;;;5015629;28;20061;-72
2021/12/31 00:13:05;;;;;;;20.90;3.88;;;12.40;99.90;;;;;;4998860;28;20442;-70
2021/12/31 00:15:30;;;;;;;22.05;3.90;;;12.40;99.90;;;;;;5015898;28;20136;-74
2021/12/31 00:17:56;;;;;;;16.98;3.78;;;12.30;99.90;;;;;;4997983;28;20480;-71
2021/12/31 00:20:24;;;;;;;15.70;4.47;;;12.30;99.90;;;;;;4997567;28;20489;-71
2021/12/31 00:22:57;;;;;;;19.42;3.70;;;12.30;99.90;;;;;;5015321;28;20057;-70
2021/12/31 00:25:23;;;;;;;23.90;4.03;;;12.30;99.90;;;;;;5015766;28;20053;-71
2021/12/31 00:27:49;;;;;;;21.77;3.70;;;12.30;99.90;;;;;;5015017;28;20042;-71
2021/12/31 00:30:16;;;;;;;21.15;4.22;;;12.30;99.90;;;;;;5015467;28;20041;-74
2021/12/31 00:32:41;;;;;;;26.80;5.20;;;12.30;99.90;;;;;;5015241;28;20081;-72
2021/12/31 00:35:08;;;;;;;18.75;4.03;;;12.30;99.90;;;;;;5014959;28;20077;-72
2021/12/31 00:37:36;;;;;;;23.33;4.97;;;12.20;99.90;;;;;;5014506;28;20038;-71
2021/12/31 00:40:05;;;;;;;23.13;4.05;;;12.20;99.90;;;;;;5014946;28;20056;-70
2021/12/31 00:42:30;;;;;;;23.00;3.67;;;12.30;99.90;;;;;;5015292;28;20053;-73
2021/12/31 00:44:56;;;;;;;20.58;4.20;;;12.20;99.90;;;;;;4997750;28;20096;-73
2021/12/31 00:47:22;;;;;;;17.48;3.85;;;12.20;99.90;;;;;;4981444;28;20111;-72
2021/12/31 00:49:47;;;;;;;22.73;4.70;;;12.30;99.90;;;;;;5015016;28;20328;-72
2021/12/31 00:52:14;;;;;;;17.15;3.90;;;12.20;99.90;;;;;;5015064;28;20442;-71
2021/12/31 00:54:40;;;;;;;20.15;4.50;;;12.20;99.90;;;;;;5015097;28;20176;-71
2021/12/31 00:57:06;;;;;;;15.45;3.67;;;12.20;99.90;;;;;;5014946;28;20097;-72
2021/12/31 00:59:33;;;;;;;19.00;4.20;;;12.20;99.90;;;;;;5015072;28;20046;-71
2021/12/31 01:02:00;;;;;;;17.05;3.75;;;12.20;99.90;;;;;;4981395;28;20042;-73
2021/12/31 01:04:26;;;;;;;21.38;5.22;;;12.20;99.90;;;;;;5014351;28;20068;-71
2021/12/31 01:06:51;;;;;;;17.50;4.05;;;12.10;99.90;;;;;;5014871;28;20042;-72
2021/12/31 01:09:17;;;;;;;19.58;4.20;;;12.10;99.90;;;;;;5015034;28;20176;-71
2021/12/31 01:11:46;;;;;;;21.33;4.63;;;12.10;99.90;;;;;;4997832;28;20050;-72
2021/12/31 01:14:30;;;;;;;22.80;5.95;;;12.10;99.90;;;;;;5015052;28;20054;-73
2021/12/31 01:17:02;;;;;;;26.33;5.05;;;12.10;99.90;;;;;;5014752;28;20125;-72
2021/12/31 01:19:45;;;;;;;21.88;4.45;;;12.10;99.90;;;;;;5014619;28;20057;-71
2021/12/31 01:22:15;;;;;;;25.80;4.35;;;12.10;99.90;;;;;;5014757;28;20065;-73
2021/12/31 01:24:41;;;;;;;16.13;4.93;;;12.10;99.90;;;;;;5014950;28;20073;-72
2021/12/31 01:27:07;;;;;;;18.60;4.60;;;12.10;99.90;;;;;;5014057;28;20477;-72
2021/12/31 01:29:32;;;;;;;18.92;4.40;;;12.10;99.90;;;;;;5014603;28;20042;-73
2021/12/31 01:31:58;;;;;;;22.02;4.72;;;12.10;99.90;;;;;;4997142;28;20045;-72
2021/12/31 01:34:24;;;;;;;17.75;4.40;;;12.10;99.90;;;;;;4997951;28;20054;-73
2021/12/31 01:36:51;;;;;;;25.48;4.57;;;12.10;99.90;;;;;;4997557;28;20065;-72
2021/12/31 01:39:16;;;;;;;19.98;4.35;;;12.10;99.90;;;;;;4997422;28;20046;-72
2021/12/31 01:41:42;;;;;;;31.00;5.10;;;12.10;99.90;;;;;;5014926;28;20054;-71
2021/12/31 01:44:08;;;;;;;20.10;5.10;;;12.10;99.90;;;;;;5014566;28;20125;-72
2021/12/31 01:46:36;;;;;;;20.27;4.93;;;12.10;99.90;;;;;;4997291;28;20078;-73
2021/12/31 01:49:03;;;;;;;22.60;5.15;;;12.10;99.90;;;;;;5015211;28;20053;-72
2021/12/31 01:51:30;;;;;;;23.23;4.68;;;12.00;99.90;;;;;;5000618;28;20087;-72
2021/12/31 01:53:55;;;;;;;18.45;4.43;;;12.10;99.90;;;;;;5000807;28;20046;-72
2021/12/31 01:56:22;;;;;;;19.70;4.70;;;12.00;99.90;;;;;;5017801;28;20354;-71
2021/12/31 01:58:54;;;;;;;17.95;5.20;;;12.00;99.90;;;;;;5017430;28;20077;-72
2021/12/31 02:01:22;;;;;;;14.98;3.80;;;12.00;99.90;;;;;;5017995;28;20128;-72
2021/12/31 02:03:49;;;;;;;17.27;4.57;;;12.00;99.90;;;;;;5017824;28;20180;-71
2021/12/31 02:06:14;;;;;;;21.80;5.28;;;12.00;99.90;;;;;;5000539;28;20089;-72
2021/12/31 02:08:40;;;;;;;18.65;4.65;;;12.00;99.90;;;;;;5017711;28;20089;-71
2021/12/31 02:11:05;;;;;;;25.30;5.03;;;12.10;99.90;;;;;;5017730;28;20050;-71
2021/12/31 02:13:31;;;;;;;21.38;5.05;;;12.00;99.90;;;;;;5000838;28;20050;-71
2021/12/31 02:15:56;;;;;;;22.00;4.65;;;12.00;99.90;;;;;;5000894;28;20473;-72
2021/12/31 02:18:22;;;;;;;21.15;4.57;;;12.00;99.90;;;;;;5017785;28;20469;-71
2021/12/31 02:20:48;;;;;;;17.92;4.60;;;12.00;99.90;;;;;;5017300;28;20199;-72
2021/12/31 02:23:20;;;;;;;20.75;4.53;;;12.00;99.90;;;;;;5000191;28;20054;-72
2021/12/31 02:25:46;;;;;;;20.50;4.88;;;12.00;99.90;;;;;;5017403;28;20045;-72
2021/12/31 02:28:12;;;;;;;18.08;4.43;;;12.00;99.90;;;;;;5016582;28;20108;-74
2021/12/31 02:30:38;;;;;;;13.63;3.97;;;12.00;99.90;;;;;;5000262;28;20120;-72
2021/12/31 02:33:04;;;;;;;20.40;4.15;;;12.10;99.90;;;;;;4984066;28;20057;-71
2021/12/31 02:35:31;;;;;;;21.95;5.70;;;12.10;99.90;;;;;;5000512;28;20142;-72
2021/12/31 02:37:57;;;;;;;14.40;3.97;;;12.10;99.90;;;;;;4982686;28;20849;-71
2021/12/31 02:40:24;;;;;;;20.15;4.88;;;12.10;99.90;;;;;;5017065;28;20092;-72
2021/12/31 02:42:49;;;;;;;16.05;4.40;;;12.10;99.90;;;;;;5017100;28;20132;-71
2021/12/31 02:45:15;;;;;;;19.17;4.10;;;12.10;99.90;;;;;;5017241;28;20133;-73
2021/12/31 02:47:45;;;;;;;14.38;4.38;;;12.10;99.90;;;;;;5016704;28;20049;-74
2021/12/31 02:50:17;;;;;;;13.63;4.15;;;12.10;99.90;;;;;;5017334;28;20061;-72
2021/12/31 02:52:44;;;;;;;13.57;3.72;;;12.10;99.90;;;;;;5000088;28;20397;-74
2021/12/31 02:55:12;;;;;;;17.73;5.65;;;12.20;99.90;;;;;;5016946;28;20046;-72
2021/12/31 02:57:39;;;;;;;15.00;4.25;;;12.20;99.90;;;;;;5016455;28;20042;-70
2021/12/31 03:00:07;;;;;;;13.82;3.95;;;12.20;99.90;;;;;;5016815;28;20050;-73
2021/12/31 03:02:36;;;;;;;11.50;4.10;;;12.30;99.90;;;;;;5015995;28;20378;-72
2021/12/31 03:05:03;;;;;;;14.68;3.75;;;12.30;99.90;;;;;;4982682;28;20042;-73
2021/12/31 03:07:31;;;;;;;17.58;4.43;;;12.30;99.90;;;;;;4983290;28;20129;-72
2021/12/31 03:09:59;;;;;;;15.35;3.90;;;12.30;99.90;;;;;;5016524;28;20057;-73
2021/12/31 03:12:25;;;;;;;18.40;4.18;;;12.30;99.90;;;;;;5016719;28;20192;-71
2021/12/31 03:14:51;;;;;;;18.45;4.25;;;12.30;99.90;;;;;;4999639;28;20136;-71
2021/12/31 03:17:19;;;;;;;16.10;4.13;;;12.30;99.90;;;;;;5016809;28;20037;-72
2021/12/31 03:19:45;;;;;;;13.57;4.22;;;12.40;99.90;;;;;;5015755;28;20058;-71
2021/12/31 03:22:11;;;;;;;12.68;4.40;;;12.40;99.90;;;;;;4998285;28;20069;-72
2021/12/31 03:24:37;;;;;;;9.65;3.78;;;12.40;99.90;;;;;;5016704;28;20080;-72
2021/12/31 03:27:03;;;;;;;14.70;4.53;;;12.50;99.90;;;;;;5016469;28;20125;-72
2021/12/31 03:29:28;;;;;;;12.98;3.75;;;12.50;99.90;;;;;;4999306;28;20053;-70
2021/12/31 03:31:54;;;;;;;12.88;3.90;;;12.50;99.90;;;;;;4999334;28;20462;-73
2021/12/31 03:34:20;;;;;;;10.85;3.67;;;12.50;99.90;;;;;;4998610;28;20450;-74
2021/12/31 03:36:46;;;;;;;12.48;4.35;;;12.50;99.90;;;;;;5016499;28;20046;-71
2021/12/31 03:39:12;;;;;;;12.38;3.70;;;12.50;99.90;;;;;;5016200;28;20065;-71
2021/12/31 03:41:38;;;;;;;13.25;4.13;;;12.50;99.90;;;;;;4999104;28;20050;-71
2021/12/31 03:44:04;;;;;;;11.85;3.97;;;12.50;99.90;;;;;;4999189;28;20124;-71
2021/12/31 03:46:30;;;;;;;10.98;3.22;;;12.50;99.90;;;;;;5015948;28;20046;-72
2021/12/31 03:48:56;;;;;;;11.43;3.42;;;12.50;99.90;;;;;;5015846;28;20141;-71
2021/12/31 03:51:22;;;;;;;12.77;3.67;;;12.50;99.90;;;;;;4982015;28;20125;-72
2021/12/31 03:53:47;;;;;;;13.73;3.60;;;12.50;99.90;;;;;;5016246;28;20096;-73
2021/12/31 03:56:13;;;;;;;8.32;3.10;;;12.50;99.90;;;;;;4998776;28;20046;-72
2021/12/31 03:58:39;;;;;;;10.73;3.10;;;12.50;99.90;;;;;;4998683;28;20104;-72
2021/12/31 04:01:05;;;;;;;16.45;4.07;;;12.50;99.90;;;;;;4999022;28;20447;-72
2021/12/31 04:03:30;;;;;;;13.63;3.65;;;12.50;99.90;;;;;;5015718;28;20042;-71
2021/12/31 04:05:56;;;;;;;8.43;3.17;;;12.40;99.90;;;;;;5015609;28;20481;-71
2021/12/31 04:08:22;;;;;;;10.73;2.83;;;12.40;99.90;;;;;;4998629;28;20046;-70
2021/12/31 04:10:47;;;;;;;15.10;3.63;;;12.50;99.90;;;;;;5015573;28;20053;-71
2021/12/31 04:13:13;;;;;;;9.07;3.35;;;12.40;99.90;;;;;;5015774;28;20050;-73
2021/12/31 04:15:39;;;;;;;11.32;3.10;;;12.40;99.90;;;;;;5015653;28;20476;-70
2021/12/31 04:18:05;;;;;;;9.52;3.45;;;12.40;99.90;;;;;;4998411;28;20046;-71
2021/12/31 04:20:39;;;;;;;9.93;3.28;;;12.50;99.90;;;;;;5015007;28;20061;-70
2021/12/31 04:23:25;;;;;;;14.40;3.55;;;12.50;99.90;;;;;;5015734;28;20081;-71
2021/12/31 04:25:51;;;;;;;7.32;2.97;;;12.40;99.90;;;;;;5014978;28;20054;-71
2021/12/31 04:28:17;;;;;;;9.75;2.97;;;12.40;99.90;;;;;;4998384;28;20050;-72
2021/12/31 04:30:42;;;;;;;11.20;3.58;;;12.50;99.90;;;;;;5016151;28;20061;-71
2021/12/31 04:33:08;;;;;;;11.55;3.22;;;12.50;99.90;;;;;;5015195;28;20050;-71
2021/12/31 04:35:34;;;;;;;10.45;3.30;;;12.50;99.90;;;;;;5015478;28;20457;-71
2021/12/31 04:37:59;;;;;;;12.32;3.15;;;12.50;99.90;;;;;;5015316;28;20038;-72
2021/12/31 04:40:25;;;;;;;12.32;3.80;;;12.50;99.90;;;;;;5015496;28;20406;-74
2021/12/31 04:42:51;;;;;;;12.85;3.40;;;12.50;99.90;;;;;;5015229;28;20042;-71
2021/12/31 04:45:17;;;;;;;13.15;3.13;;;12.50;99.90;;;;;;5014884;28;20053;-71
2021/12/31 04:47:42;;;;;;;13.18;3.53;;;12.60;99.90;;;;;;5015150;28;20113;-73
2021/12/31 04:50:08;;;;;;;11.10;3.38;;;12.50;99.90;;;;;;4997503;28;20046;-72
2021/12/31 04:52:34;;;;;;;12.60;3.08;;;12.60;99.90;;;;;;5015137;28;20450;-71
2021/12/31 04:55:00;;;;;;;8.43;3.00;;;12.60;99.90;;;;;;5015260;28;20092;-71
2021/12/31 04:57:27;;;;;;;6.65;3.08;;;12.60;99.90;;;;;;5015051;28;20057;-72
2021/12/31 04:59:53;;;;;;;12.23;3.55;;;12.60;99.90;;;;;;5015836;28;20450;-70
2021/12/31 05:02:19;;;;;;;10.48;3.30;;;12.60;99.90;;;;;;5014879;28;20136;-71
2021/12/31 05:04:44;;;;;;;9.40;3.13;;;12.60;99.90;;;;;;4998086;28;20133;-71
2021/12/31 05:07:10;;;;;;;9.40;3.10;;;12.60;99.90;;;;;;5015112;28;20362;-72
2021/12/31 05:09:36;;;;;;;7.00;2.80;;;12.50;99.90;;;;;;5014880;28;20050;-72
2021/12/31 05:12:03;;;;;;;12.55;4.10;;;12.50;99.90;;;;;;4997736;28;20050;-71
2021/12/31 05:14:29;;;;;;;11.38;3.50;;;12.50;99.90;;;;;;5015593;28;20054;-71
2021/12/31 05:16:54;;;;;;;10.68;3.47;;;12.50;99.90;;;;;;4998077;28;20056;-72
2021/12/31 05:19:20;;;;;;;11.48;4.15;;;12.50;99.90;;;;;;4996870;28;20042;-70
2021/12/31 05:21:46;;;;;;;9.35;4.75;;;12.50;99.90;;;;;;5013953;28;20120;-71
2021/12/31 05:24:14;;;;;;;13.60;5.88;;;12.50;99.90;;;;;;5015590;28;20054;-70
2021/12/31 05:26:40;;;;;;;11.80;5.53;;;12.50;99.90;;;;;;5017865;28;20045;-72
2021/12/31 05:29:05;;;;;;;9.80;5.32;;;12.50;99.90;;;;;;5018214;28;20068;-73
2021/12/31 05:31:31;;;;;;;8.77;5.43;;;12.50;99.90;;;;;;5018947;28;20092;-74
2021/12/31 05:33:56;;;;;;;9.68;5.43;;;12.50;99.90;;;;;;5001806;28;20057;-71
2021/12/31 05:36:22;;;;;;;10.05;5.40;;;12.50;99.90;;;;;;5018324;28;20050;-71
2021/12/31 05:38:47;;;;;;;12.95;5.68;;;12.50;99.90;;;;;;5018486;28;20050;-72
2021/12/31 05:41:13;;;;;;;12.23;5.10;;;12.60;99.90;;;;;;5018364;28;20046;-71
2021/12/31 05:43:39;;;;;;;10.23;5.00;;;12.60;99.90;;;;;;5000789;28;20133;-72
2021/12/31 05:46:05;;;;;;;9.25;5.18;;;12.60;99.90;;;;;;5018463;28;20189;-73
2021/12/31 05:48:31;;;;;;;9.13;4.65;;;12.60;99.90;;;;;;5018125;28;20474;-72
2021/12/31 05:50:57;;;;;;;9.43;4.50;;;12.50;99.90;;;;;;5018129;28;20473;-72
2021/12/31 05:53:23;;;;;;;10.15;4.80;;;12.50;99.90;;;;;;5018178;28;20072;-70
2021/12/31 05:55:49;;;;;;;9.35;4.85;;;12.50;99.90;;;;;;5018168;28;20061;-71
2021/12/31 05:58:14;;;;;;;13.30;4.90;;;12.50;99.90;;;;;;5017931;28;20049;-72
2021/12/31 06:00:40;;;;;;;10.60;4.15;;;12.50;99.90;;;;;;5017718;28;20092;-71
2021/12/31 06:03:05;;;;;;;9.48;4.70;;;12.50;99.90;;;;;;4984432;28;20045;-71
2021/12/31 06:05:31;;;;;;;10.75;4.50;;;12.60;99.90;;;;;;5018072;28;20042;-73
2021/12/31 06:07:57;;;;;;;9.40;4.20;;;12.60;99.90;;;;;;5017974;28;20064;-72
2021/12/31 06:10:24;;;;;;;10.38;4.20;;;12.60;99.90;;;;;;5000822;28;20049;-72
2021/12/31 06:12:52;;;;;;;10.18;3.90;;;12.60;99.90;;;;;;5017626;28;20104;-72
2021/12/31 06:15:19;;;;;;;7.55;3.85;;;12.60;99.90;;;;;;5018030;28;20119;-72
2021/12/31 06:17:45;;;;;;;11.88;4.80;;;12.60;99.90;;;;;;5017586;28;20077;-72
2021/12/31 06:20:12;;;;;;;7.95;3.80;;;12.60;99.90;;;;;;5016624;28;20115;-71
2021/12/31 06:22:37;;;;;;;8.40;4.03;;;12.60;99.90;;;;;;5016487;28;20073;-71
2021/12/31 06:25:04;;;;;;;10.77;4.53;;;12.60;99.90;;;;;;5016648;28;20152;-73
2021/12/31 06:27:29;;;;;;;12.18;3.92;;;12.60;99.90;;;;;;5016613;28;20531;-72
2021/12/31 06:29:55;;;;;;;6.53;3.67;;;12.60;99.90;;;;;;5015954;28;20117;-72
2021/12/31 06:32:21;;;;;;;8.32;3.40;;;12.60;99.90;;;;;;4999342;28;20054;-73
2021/12/31 06:34:46;;;;;;;8.77;3.55;;;12.60;99.90;;;;;;5016320;28;20046;-72
2021/12/31 06:37:12;;;;;;;8.95;3.55;;;12.60;99.90;;;;;;5016346;28;20077;-72
2021/12/31 06:39:37;;;;;;;6.47;3.30;;;12.60;99.90;;;;;;4999110;28;20038;-72
2021/12/31 06:42:07;;;;;;;7.22;3.22;;;12.60;99.90;;;;;;5015143;28;20057;-71
2021/12/31 06:44:33;;;;;;;9.23;3.10;;;12.60;99.90;;;;;;5016473;28;20054;-73
2021/12/31 06:46:59;;;;;;;7.60;3.20;;;12.60;99.90;;;;;;4998879;28;20050;-71
2021/12/31 06:49:24;;;;;;;8.55;3.30;;;12.50;99.90;;;;;;4982643;28;20049;-71
2021/12/31 06:51:50;;;;;;;8.85;3.67;;;12.50;99.90;;;;;;5016323;28;20052;-72
2021/12/31 06:54:16;;;;;;;6.28;3.20;;;12.50;99.90;;;;;;5017503;28;20053;-73
2021/12/31 06:56:41;;;;;;;8.45;3.55;;;12.50;99.90;;;;;;4996067;28;20050;-72
2021/12/31 06:59:07;;;;;;;13.38;3.25;;;12.50;99.90;;;;;;5014715;28;20377;-73
2021/12/31 07:01:32;;;;;;;6.95;3.20;;;12.50;99.90;;;;;;5015456;28;20034;-73
2021/12/31 07:03:58;;;;;;;6.22;2.95;;;12.50;99.90;;;;;;5015859;28;20053;-72
2021/12/31 07:06:23;;;;;;;8.68;3.20;;;12.50;99.90;;;;;;5015837;28;20053;-70
2021/12/31 07:08:49;;;;;;;5.80;3.10;;;12.50;99.90;;;;;;4998711;28;20065;-71
2021/12/31 07:11:17;;;;;;;6.88;2.95;;;12.50;99.90;;;;;;5015612;28;20085;-72
2021/12/31 07:13:43;;;;;;;8.52;3.08;;;12.50;99.90;;;;;;5015234;28;20061;-72
2021/12/31 07:16:08;;;;;;;7.25;2.85;;;12.50;99.90;;;;;;5015387;28;20042;-72
2021/12/31 07:18:34;;;;;;;8.75;3.20;;;12.50;99.90;;;;;;5015192;28;20077;-71
2021/12/31 07:20:59;;;;;;;9.07;3.25;;;12.50;99.90;;;;;;4963731;28;1017107;-70
2021/12/31 07:23:25;;;;;;;8.40;3.17;;;12.50;99.90;;;;;;5016622;28;20050;-72
2021/12/31 07:25:51;;;;;;;6.88;3.00;;;12.50;99.90;;;;;;4998362;28;20045;-69
2021/12/31 07:28:16;;;;;;;7.63;3.10;;;12.40;99.90;;;;;;4989025;28;20061;-71
2021/12/31 07:30:44;;;;;;;8.75;3.08;;;12.40;99.90;;;;;;5000838;28;20046;-73
2021/12/31 07:33:23;;;;;;;7.10;3.53;;;12.40;99.90;;;;;;4999417;28;20046;-72
2021/12/31 07:35:50;;;;;;;6.95;3.03;;;12.40;99.90;;;;;;4998748;28;20061;-71
2021/12/31 07:38:31;;;;;;;7.00;3.40;;;12.30;99.90;;;;;;5015787;28;20042;-73
2021/12/31 07:40:57;;;;;;;7.05;3.10;;;12.30;99.90;;;;;;5015878;28;20179;-71
2021/12/31 07:43:22;;;;;;;6.25;3.15;;;12.30;99.90;;;;;;4998878;28;20053;-74
2021/12/31 07:45:52;;;;;;;9.32;3.00;;;12.30;99.90;;;;;;4998914;28;20493;-73
2021/12/31 07:48:19;;;;;;;8.38;3.33;;;12.20;99.90;;;;;;4989187;28;20458;-72
2021/12/31 07:50:45;;;;;;;7.40;3.30;;;12.20;99.90;;;;;;5015848;28;20065;-69
2021/12/31 07:53:10;;;;;;;6.22;3.08;;;12.10;99.90;;;;;;4964030;28;20050;-70
2021/12/31 07:55:36;;;;;;;8.30;3.40;;;12.10;99.90;;;;;;5010200;28;20088;-72
2021/12/31 07:58:03;;;;;;;9.25;3.40;;;12.00;99.90;;;;;;5015572;28;20092;-72
2021/12/31 08:00:29;;;;;;;7.05;3.63;;;12.00;99.90;;;;;;4998727;28;20050;-71
2021/12/31 08:02:55;;;;;;;7.43;3.67;;;12.20;99.90;;;;;;5030808;28;20073;-72
2021/12/31 08:05:22;;;;;;;8.13;3.70;;;12.10;99.90;;;;;;5015730;28;20037;-72
2021/12/31 08:07:48;;;;;;;9.25;3.72;;;12.10;99.90;;;;;;5015654;28;20442;-73
2021/12/31 08:10:13;;;;;;;10.60;3.38;;;12.10;99.90;;;;;;5015091;28;20045;-71
2021/12/31 08:12:39;;;;;;;9.68;3.45;;;12.10;99.90;;;;;;5014981;28;20080;-72
2021/12/31 08:15:05;;;;;;;6.80;3.45;;;12.20;99.90;;;;;;5031045;28;20084;-72
2021/12/31 08:17:31;;;;;;;7.63;3.92;;;12.30;99.90;;;;;;5009667;28;20035;-74
2021/12/31 08:19:56;;;;;;;5.55;3.50;;;12.30;99.90;;;;;;4994488;28;20127;-71
2021/12/31 08:22:23;;;;;;;10.63;3.60;;;12.30;99.90;;;;;;4994816;28;20141;-70
2021/12/31 08:24:48;;;;;;;8.15;3.63;;;12.40;99.90;;;;;;4986678;28;20049;-72
2021/12/31 08:27:14;;;;;;;7.75;3.65;;;12.40;99.90;;;;;;5011826;28;20412;-74
2021/12/31 08:29:39;;;;;;;8.80;4.00;;;12.30;99.90;;;;;;5004530;28;20042;-72
2021/12/31 08:32:06;;;;;;;6.25;3.47;;;12.50;99.90;;;;;;5018447;28;20042;-73
2021/12/31 08:34:31;;;;;;;6.25;3.47;;;12.50;99.90;;;;;;5004525;28;20050;-71
2021/12/31 08:36:57;;;;;;;10.27;3.65;;;12.50;99.90;;;;;;5003901;28;20034;-72
2021/12/31 08:39:23;;;;;;;10.07;3.42;;;12.50;99.90;;;;;;5004642;28;20042;-71
2021/12/31 08:41:48;;;;;;;9.82;3.75;;;12.50;99.90;;;;;;5015344;28;20064;-70
2021/12/31 08:44:14;;;;;;;6.78;4.00;;;12.50;99.90;;;;;;5005009;28;20085;-69
2021/12/31 08:46:41;;;;;;;9.07;3.30;;;12.50;99.90;;;;;;5004471;28;20042;-71
2021/12/31 08:49:07;;;;;;;8.40;3.60;;;12.50;99.90;;;;;;5015033;28;20120;-71
2021/12/31 08:51:33;;;;;;;8.50;4.20;;;12.60;99.90;;;;;;5015206;28;20038;-73
2021/12/31 08:53:58;;;;;;;8.45;3.30;;;12.60;99.90;;;;;;4997860;28;20056;-71
2021/12/31 08:56:24;;;;;;;9.95;3.70;;;12.60;99.90;;;;;;5014916;28;20447;-71
2021/12/31 08:58:50;;;;;;;6.95;3.47;;;12.60;99.90;;;;;;4938702;29;20067;-71
2021/12/31 09:01:15;;;;;;;10.40;3.70;;;12.60;99.90;;;;;;4958258;28;20058;-72
2021/12/31 09:03:41;;;;;;;9.35;3.47;;;12.60;99.90;;;;;;4958152;28;20051;-73
2021/12/31 09:06:07;;;;;;;7.93;4.00;;;12.60;99.90;;;;;;4958259;29;20082;-71
2021/12/31 09:08:33;;;;;;;8.23;3.60;;;12.60;99.90;;;;;;4942568;29;20484;-72
2021/12/31 09:10:59;;;;;;;8.02;3.90;;;12.60;99.90;;;;;;4957611;29;20051;-73
2021/12/31 09:13:27;;;;;;;7.05;4.18;;;12.60;99.90;;;;;;4958294;29;20067;-70
2021/12/31 09:15:52;;;;;;;9.05;3.70;;;12.60;99.90;;;;;;4942250;29;20082;-71
2021/12/31 09:18:18;;;;;;;8.95;3.70;;;12.60;99.90;;;;;;4957655;28;20582;-72
2021/12/31 09:20:43;;;;;;;9.65;3.90;;;12.60;99.90;;;;;;4957916;28;20056;-72
2021/12/31 09:23:09;;;;;;;10.38;4.43;;;12.60;99.90;;;;;;4957535;28;20121;-72
2021/12/31 09:25:34;;;;;;;7.63;3.60;;;12.60;99.90;;;;;;4942761;29;20114;-74
2021/12/31 09:28:00;;;;;;;7.55;3.97;;;12.60;99.90;;;;;;4958020;28;20043;-72
2021/12/31 09:30:26;;;;;;;7.63;3.72;;;12.60;99.90;;;;;;4989320;28;20061;-71
2021/12/31 09:32:51;;;;;;;7.95;4.60;;;12.60;99.90;;;;;;4998858;28;20046;-72
2021/12/31 09:35:17;;;;;;;7.05;3.35;;;12.60;99.90;;;;;;4965246;28;20042;-73
2021/12/31 09:37:43;;;;;;;7.90;3.70;;;12.60;99.90;;;;;;4998719;28;20421;-74
2021/12/31 09:40:09;;;;;;;8.57;4.05;;;12.70;99.90;;;;;;4999021;28;20085;-73
2021/12/31 09:42:36;;;;;;;7.68;3.40;;;12.70;99.90;;;;;;4981816;28;20046;-71
2021/12/31 09:45:02;;;;;;;9.80;3.58;;;12.70;99.90;;;;;;4981486;28;20097;-71
2021/12/31 09:47:28;;;;;;;6.60;3.10;;;12.80;99.90;;;;;;4981343;28;20543;-70
2021/12/31 09:49:54;;;;;;;7.20;3.60;;;12.90;99.90;;;;;;4982110;28;20046;-73
2021/12/31 09:52:22;;;;;;;8.75;3.50;;;12.80;99.90;;;;;;4997894;28;20050;-72
2021/12/31 09:54:49;;;;;;;8.05;3.10;;;12.80;99.90;;;;;;4981486;28;20062;-73
2021/12/31 09:57:16;;;;;;;6.22;3.03;;;12.80;99.90;;;;;;4998388;28;20050;-72
2021/12/31 09:59:42;;;;;;;8.55;3.45;;;12.80;99.90;;;;;;4980861;28;20055;-70
2021/12/31 10:02:09;;;;;;;6.70;3.53;;;12.80;99.90;;;;;;4998221;28;20089;-71
2021/12/31 10:04:49;;;;;;;10.48;3.67;;;12.80;99.90;;;;;;4997996;28;20046;-73
2021/12/31 10:07:20;;;;;;;6.53;3.22;;;12.70;99.90;;;;;;4998149;28;20046;-72
2021/12/31 10:10:11;;;;;;;8.20;3.03;;;12.70;99.90;;;;;;4964498;28;20042;-72
2021/12/31 10:12:44;;;;;;;10.60;4.03;;;12.70;99.90;;;;;;4998055;28;20144;-72
2021/12/31 10:15:09;;;;;;;7.90;3.75;;;12.70;99.90;;;;;;4981688;28;20450;-73
2021/12/31 10:17:35;;;;;;;10.32;4.00;;;12.70;99.90;;;;;;4981075;28;20059;-72
2021/12/31 10:20:01;;;;;;;10.60;3.80;;;12.70;99.90;;;;;;4999338;28;20148;-73
2021/12/31 10:22:27;;;;;;;7.45;3.60;;;12.70;99.90;;;;;;5016933;28;20085;-71
2021/12/31 10:24:53;;;;;;;7.78;3.88;;;12.70;99.90;;;;;;5017044;28;20037;-71
2021/12/31 10:27:23;;;;;;;9.77;3.85;;;12.60;99.90;;;;;;5017089;28;20124;-70
2021/12/31 10:29:57;;;;;;;11.32;4.00;;;12.60;99.90;;;;;;4999923;28;20050;-71
2021/12/31 10:32:28;;;;;;;7.18;4.45;;;12.50;99.90;;;;;;5017374;28;20081;-73
2021/12/31 10:35:06;;;;;;;9.40;4.25;;;12.50;99.90;;;;;;5017471;28;20373;-71
2021/12/31 10:37:43;;;;;;;7.88;4.38;;;12.40;99.90;;;;;;5017200;28;20057;-73
2021/12/31 10:40:10;;;;;;;10.07;4.45;;;12.40;99.90;;;;;;5015690;28;20053;-72
2021/12/31 10:42:37;;;;;;;6.35;4.00;;;12.40;99.90;;;;;;5016977;28;20050;-73
2021/12/31 10:45:04;;;;;;;11.20;4.28;;;12.40;99.90;;;;;;5016009;28;20046;-73
2021/12/31 10:47:34;;;;;;;9.45;3.90;;;12.30;99.90;;;;;;5004849;28;20042;-72
2021/12/31 10:50:02;;;;;;;8.27;3.80;;;12.40;99.90;;;;;;5006464;28;20042;-70
2021/12/31 10:52:35;;;;;;;7.85;3.72;;;12.30;99.90;;;;;;5014556;28;20049;-72
2021/12/31 10:55:17;;;;;;;7.18;4.47;;;12.30;99.90;;;;;;4999121;28;20054;-74
2021/12/31 10:57:44;;;;;;;11.00;4.00;;;12.30;99.90;;;;;;5004808;28;20054;-72
2021/12/31 11:00:12;;;;;;;9.02;4.20;;;12.30;99.90;;;;;;5016485;28;20427;-71
2021/12/31 11:02:39;;;;;;;11.85;3.90;;;12.30;99.90;;;;;;5015091;28;20081;-71
2021/12/31 11:05:06;;;;;;;11.00;4.70;;;12.30;99.90;;;;;;4998933;28;20046;-72
2021/12/31 11:07:32;;;;;;;7.25;4.10;;;12.30;99.90;;;;;;4998844;28;20116;-71
2021/12/31 11:09:59;;;;;;;9.05;4.47;;;12.30;99.90;;;;;;5015995;28;20041;-73
2021/12/31 11:12:27;;;;;;;8.23;4.55;;;12.30;99.90;;;;;;5016297;28;20077;-71
2021/12/31 11:14:54;;;;;;;9.82;4.32;;;12.30;99.90;;;;;;5016480;28;20066;-72
2021/12/31 11:17:20;;;;;;;8.20;4.78;;;12.30;99.90;;;;;;5014716;28;20041;-72
2021/12/31 11:19:49;;;;;;;8.25;4.35;;;12.30;99.90;;;;;;4994252;28;20130;-71
2021/12/31 11:22:17;;;;;;;11.48;4.55;;;12.30;99.90;;;;;;4998543;28;20462;-70
2021/12/31 11:24:44;;;;;;;10.27;5.10;;;12.30;99.90;;;;;;5010080;28;20511;-73
2021/12/31 11:27:31;;;;;;;10.82;5.00;;;12.20;99.90;;;;;;5023813;28;20042;-71
2021/12/31 11:29:58;;;;;;;12.13;4.57;;;12.20;99.90;;;;;;5011945;28;20053;-72
2021/12/31 11:32:45;;;;;;;8.15;4.82;;;12.20;99.90;;;;;;5015957;28;20042;-71
2021/12/31 11:35:46;;;;;;;9.75;4.95;;;12.10;99.90;;;;;;5015784;28;20112;-71
2021/12/31 11:38:13;;;;;;;9.32;5.00;;;12.10;99.90;;;;;;5015557;28;20097;-70
2021/12/31 11:40:50;;;;;;;10.65;5.30;;;12.10;99.90;;;;;;4993339;28;20050;-73
2021/12/31 11:43:25;;;;;;;10.10;5.20;;;12.10;99.90;;;;;;5006416;28;20525;-73
2021/12/31 11:46:09;;;;;;;7.93;5.00;;;12.00;99.90;;;;;;5008138;28;20052;-72
2021/12/31 11:48:49;;;;;;;9.32;5.80;;;12.00;99.90;;;;;;5010937;28;20468;-71
2021/12/31 11:51:16;;;;;;;11.77;6.32;;;12.00;99.90;;;;;;4998424;28;20049;-73
2021/12/31 11:54:00;;;;;;;12.27;6.20;;;12.00;99.90;;;;;;4996454;28;20041;-72
2021/12/31 11:56:39;;;;;;;;;;;12.00;99.90;;;;;;4980891;28;20111;-70
2021/12/31 11:59:11;;;;;;;12.80;6.10;;;12.00;99.90;;;;;;5010749;28;19922;-72
2021/12/31 12:01:36;;;;;;;19.08;7.00;;;11.90;99.90;;;;;;4992863;28;20050;-71
2021/12/31 12:04:34;;;;;;;15.25;7.13;;;11.90;99.90;;;;;;5011135;28;20355;-71
2021/12/31 12:07:03;;;;;;;17.50;6.82;;;11.90;99.90;;;;;;4975839;28;20482;-72
2021/12/31 12:09:40;;;;;;;13.63;6.35;;;11.90;99.90;;;;;;5010102;28;20133;-71
2021/12/31 12:12:07;;;;;;;13.50;6.80;;;11.80;99.90;;;;;;5010598;28;20369;-72
2021/12/31 12:14:45;;;;;;;13.98;6.45;;;11.80;99.90;;;;;;5007023;28;20050;-72
2021/12/31 12:17:29;;;;;;;11.80;6.47;;;11.80;99.90;;;;;;5012734;28;20068;-71
2021/12/31 12:20:00;;;;;;;13.30;6.85;;;11.80;99.90;;;;;;5014374;28;20401;-70
2021/12/31 12:22:27;;;;;;;14.70;7.72;;;11.80;99.90;;;;;;5013967;28;20049;-70
2021/12/31 12:24:55;;;;;;;12.45;6.80;;;11.80;99.90;;;;;;4997584;28;20053;-70
2021/12/31 12:27:22;;;;;;;13.20;6.28;;;11.70;99.90;;;;;;4996742;28;20524;-69
2021/12/31 12:29:49;;;;;;;14.82;6.57;;;11.70;99.90;;;;;;4990838;28;20056;-69
2021/12/31 12:32:17;;;;;;;13.68;7.47;;;11.70;99.90;;;;;;4993148;28;20049;-72
2021/12/31 12:34:43;;;;;;;12.93;6.55;;;11.70;99.90;;;;;;5005232;28;20457;-71
2021/12/31 12:37:09;;;;;;;14.52;6.68;;;11.70;99.90;;;;;;4991078;28;20089;-71
2021/12/31 12:39:34;;;;;;;11.23;5.97;;;11.70;99.90;;;;;;4995750;28;20107;-70
2021/12/31 12:42:00;;;;;;;14.20;7.30;;;11.70;99.90;;;;;;5006076;28;20056;-73